Pagina principale
METAR-TAF:

METAR-TAF

Aeroporti :

Trieste, Italia

latitudine: 45-39N, longitudine: 013-45E, altezza: 8 m

Osservazione

Il bollettino è stato emesso 26 minuti fa, alle 11:55 UTC
Vento calmo
Temperature 14°C
Umidità 51%
Pressione 1011 hPa
Visibilità 10 km o più
nessuna nube inferiore a 1500 m e nessun cumulonembo

METAR: LIVT 191155Z 00000KT CAVOK 14/04 Q1011 RMK FEW FEW180 QUK 0 QUL 0 VIS MAR 20 KM VIS MIN 9999

Ora: 13:21 (12:21 UTC)


TAF: mancante

Osservazioni e previsioni meteorologiche di più di 4000 aeroporti (messaggi METAR e TAF).

Le stazioni disponibili sono rappresentate dai dischi gialli e rossi sulla carta.

Puntare il mouse per vedere il nome della stazione.

Clicca sopra per visualizzare le osservazioni e previsioni meteorologiche.

Per cambiare la mappa : fare clic sui pulsanti verdi con una croce nera per ingrandire, il pulsante verde con un trattino per diminuire, o sulla freccia verde per le mappe adiacenti.


METAR-TAF: